createdAt,value
2018-12-12T00:03:05.041Z,98699.06
2018-12-12T00:08:08.253Z,98695.95
2018-12-12T00:13:11.413Z,98693.43
2018-12-12T00:18:14.625Z,98684.30
2018-12-12T00:23:17.764Z,98686.52
2018-12-12T00:28:20.930Z,98688.84
2018-12-12T00:33:24.086Z,98685.94
2018-12-12T00:38:27.315Z,98685.94
2018-12-12T00:43:34.208Z,98682.98
2018-12-12T00:48:37.406Z,98676.29
2018-12-12T00:53:40.528Z,98679.40
2018-12-12T00:58:43.661Z,98682.69
2018-12-12T01:03:46.858Z,98679.99
2018-12-12T01:08:50.034Z,98678.13
2018-12-12T01:13:53.226Z,98664.53
2018-12-12T01:18:56.373Z,98667.52
2018-12-12T01:24:00.521Z,98666.91
2018-12-12T01:29:03.689Z,98684.88
2018-12-12T01:34:06.846Z,98691.36
2018-12-12T01:39:10.000Z,98697.47
2018-12-12T01:44:13.138Z,98702.58
2018-12-12T01:49:16.304Z,98704.66
2018-12-12T01:54:19.436Z,98697.17
2018-12-12T01:59:22.921Z,98699.53
2018-12-12T02:04:26.117Z,98691.27
2018-12-12T02:09:30.173Z,98697.22
2018-12-12T02:14:33.302Z,98694.94
2018-12-12T02:19:37.090Z,98700.42
2018-12-12T02:24:40.293Z,98699.45
2018-12-12T02:29:43.372Z,98686.98
2018-12-12T02:34:46.465Z,98688.55
2018-12-12T02:39:49.734Z,98681.47
2018-12-12T02:44:52.909Z,98684.75
2018-12-12T02:49:56.061Z,98687.66
2018-12-12T02:54:59.337Z,98682.52
2018-12-12T03:00:02.654Z,98673.77
2018-12-12T03:05:06.070Z,98673.97
2018-12-12T03:10:09.203Z,98675.53
2018-12-12T03:15:13.118Z,98675.11
2018-12-12T03:20:16.266Z,98671.83
2018-12-12T03:25:19.406Z,98675.74
2018-12-12T03:30:22.498Z,98674.19
2018-12-12T03:35:25.726Z,98673.77
2018-12-12T03:45:42.463Z,98670.27
2018-12-12T03:50:45.573Z,98664.63
2018-12-12T03:55:48.681Z,98662.30
2018-12-12T04:00:51.786Z,98654.94
2018-12-12T04:05:54.866Z,98653.67
2018-12-12T04:10:59.729Z,98652.03
2018-12-12T04:16:02.818Z,98665.41
2018-12-12T04:21:05.890Z,98663.69
2018-12-12T04:26:08.940Z,98660.66
2018-12-12T04:31:12.007Z,98669.78
2018-12-12T04:36:15.161Z,98668.30
2018-12-12T04:41:18.261Z,98673.42
2018-12-12T04:46:21.444Z,98672.09
2018-12-12T04:51:24.564Z,98674.70
2018-12-12T04:56:27.710Z,98680.38
2018-12-12T05:01:30.832Z,98678.41
2018-12-12T05:06:33.911Z,98683.30
2018-12-12T05:11:37.164Z,98679.47
2018-12-12T05:16:40.293Z,98683.25
2018-12-12T05:21:43.387Z,98683.17
2018-12-12T05:26:47.120Z,98690.29
2018-12-12T05:31:50.385Z,98688.34
2018-12-12T05:36:56.414Z,98682.77
2018-12-12T05:42:00.625Z,98683.59
2018-12-12T05:47:03.738Z,98683.59
2018-12-12T05:52:06.896Z,98685.30
2018-12-12T05:57:10.037Z,98686.07
2018-12-12T06:02:13.306Z,98684.27
2018-12-12T06:07:16.489Z,98695.04
2018-12-12T06:12:20.597Z,98694.08
2018-12-12T06:17:23.728Z,98688.95
2018-12-12T06:22:27.804Z,98695.63
2018-12-12T06:27:30.910Z,98695.20
2018-12-12T06:32:35.733Z,98693.19
2018-12-12T06:37:39.021Z,98690.29
2018-12-12T06:42:42.130Z,98692.89
2018-12-12T06:47:45.237Z,98692.61
2018-12-12T06:52:48.353Z,98682.63
2018-12-12T06:57:51.519Z,98698.30
2018-12-12T07:02:54.629Z,98691.41
2018-12-12T07:07:57.728Z,98701.20
2018-12-12T07:13:00.869Z,98699.19
2018-12-12T07:18:03.991Z,98693.27
2018-12-12T07:23:07.125Z,98697.45
2018-12-12T07:28:10.253Z,98697.49
2018-12-12T07:33:13.357Z,98693.78
2018-12-12T07:38:16.446Z,98699.48
2018-12-12T07:43:19.581Z,98705.11
2018-12-12T07:48:22.749Z,98697.63
2018-12-12T07:53:26.410Z,98707.86
2018-12-12T07:58:29.596Z,98706.67
2018-12-12T08:03:32.694Z,98703.33
2018-12-12T08:08:36.696Z,98705.92
2018-12-12T08:13:39.825Z,98707.84
2018-12-12T08:18:43.128Z,98703.31
2018-12-12T08:23:49.101Z,98710.70
2018-12-12T08:28:52.209Z,98709.11
2018-12-12T08:33:55.386Z,98717.98
2018-12-12T08:38:58.505Z,98713.59
2018-12-12T08:44:01.630Z,98711.80
2018-12-12T08:49:04.800Z,98720.43
2018-12-12T08:54:07.946Z,98717.38
2018-12-12T08:59:11.050Z,98721.68
2018-12-12T09:04:14.164Z,98730.31
2018-12-12T09:09:17.338Z,98733.86
2018-12-12T09:14:20.469Z,98731.21
2018-12-12T09:19:23.592Z,98733.07
2018-12-12T09:24:26.748Z,98733.53
2018-12-12T09:29:29.923Z,98737.63
2018-12-12T09:34:33.045Z,98735.19
2018-12-12T09:39:36.156Z,98719.05
2018-12-12T09:44:39.264Z,98724.98
2018-12-12T09:49:42.404Z,98713.43
2018-12-12T09:54:45.507Z,98713.97
2018-12-12T09:59:49.352Z,98709.93
2018-12-12T10:04:53.121Z,98709.41
2018-12-12T10:09:56.277Z,98712.61
2018-12-12T10:14:59.425Z,98704.80
2018-12-12T10:20:02.606Z,98708.29
2018-12-12T10:25:06.001Z,98697.57
2018-12-12T10:30:09.264Z,98698.94
2018-12-12T10:35:12.441Z,98695.15
2018-12-12T10:40:15.648Z,98683.13
2018-12-12T10:45:18.877Z,98683.61
2018-12-12T10:50:22.011Z,98671.73
2018-12-12T10:55:25.158Z,98670.38
2018-12-12T11:00:29.006Z,98671.90
2018-12-12T11:05:32.318Z,98673.83
2018-12-12T11:10:35.722Z,98656.02
2018-12-12T11:15:38.904Z,98662.45
2018-12-12T11:20:42.098Z,98660.13
2018-12-12T11:25:45.481Z,98660.10
2018-12-12T11:30:48.664Z,98650.77
2018-12-12T11:35:51.851Z,98639.32
2018-12-12T11:40:54.981Z,98635.69
2018-12-12T11:45:58.159Z,98633.91
2018-12-12T11:51:01.338Z,98625.50
2018-12-12T11:56:04.502Z,98615.63
2018-12-12T12:01:08.561Z,98613.09
2018-12-12T12:06:11.738Z,98611.52
2018-12-12T12:11:15.770Z,98608.06
2018-12-12T12:16:18.945Z,98602.44
2018-12-12T12:21:22.093Z,98596.00
2018-12-12T12:26:25.911Z,98593.39
2018-12-12T12:31:29.268Z,98584.75
2018-12-12T12:36:32.478Z,98582.94
2018-12-12T12:41:35.626Z,98578.25
2018-12-12T12:46:38.785Z,98569.19
2018-12-12T12:51:41.939Z,98566.31
2018-12-12T12:56:45.184Z,98562.28
2018-12-12T13:01:48.313Z,98562.45
2018-12-12T13:06:51.489Z,98562.95
2018-12-12T13:11:54.687Z,98567.78
2018-12-12T13:16:57.901Z,98560.48
2018-12-12T13:22:01.092Z,98559.17
2018-12-12T13:27:04.240Z,98551.72
2018-12-12T13:32:07.377Z,98549.27
2018-12-12T13:37:10.535Z,98546.11
2018-12-12T13:42:13.832Z,98556.59
2018-12-12T13:47:17.431Z,98550.66
2018-12-12T13:52:20.856Z,98546.73
2018-12-12T13:57:24.645Z,98549.22
2018-12-12T14:02:27.981Z,98550.64
2018-12-12T14:07:31.216Z,98550.98
2018-12-12T14:12:34.365Z,98542.33
2018-12-12T14:17:37.549Z,98542.62
2018-12-12T14:22:40.677Z,98544.22
2018-12-12T14:27:43.831Z,98542.06
2018-12-12T14:32:47.066Z,98543.05
2018-12-12T14:37:50.219Z,98543.61
2018-12-12T14:42:53.403Z,98536.06
2018-12-12T14:47:56.605Z,98533.20
2018-12-12T14:52:59.744Z,98532.70
2018-12-12T14:58:02.921Z,98540.52
2018-12-12T15:03:06.085Z,98536.59
2018-12-12T15:08:09.346Z,98537.98
2018-12-12T15:13:12.645Z,98535.45
2018-12-12T15:18:15.820Z,98530.90
2018-12-12T15:23:18.998Z,98529.69
2018-12-12T15:28:22.141Z,98528.52
2018-12-12T15:33:25.384Z,98530.57
2018-12-12T15:38:28.539Z,98526.76
2018-12-12T15:43:31.786Z,98521.27
2018-12-12T15:48:34.977Z,98526.76
2018-12-12T15:53:38.160Z,98522.37
2018-12-12T15:58:41.292Z,98523.03
2018-12-12T16:03:44.447Z,98522.25
2018-12-12T16:08:47.638Z,98523.73
2018-12-12T16:13:50.896Z,98525.00
2018-12-12T16:18:54.099Z,98522.95
2018-12-12T16:23:57.331Z,98521.83
2018-12-12T16:29:00.534Z,98527.57
2018-12-12T16:34:04.593Z,98525.78
2018-12-12T16:39:08.338Z,98519.74
2018-12-12T16:44:11.510Z,98527.33
2018-12-12T16:49:14.810Z,98521.29
2018-12-12T16:54:18.019Z,98527.48
2018-12-12T16:59:22.007Z,98522.81
2018-12-12T17:04:25.233Z,98519.30
2018-12-12T17:09:28.575Z,98513.49
2018-12-12T17:14:31.781Z,98514.25
2018-12-12T17:19:35.023Z,98511.02
2018-12-12T17:24:38.286Z,98505.12
2018-12-12T17:29:41.621Z,98502.91
2018-12-12T17:34:44.868Z,98505.34
2018-12-12T17:39:48.662Z,98513.33
2018-12-12T17:44:52.027Z,98506.79
2018-12-12T17:55:11.469Z,98497.34
2018-12-12T18:00:14.839Z,98496.70
2018-12-12T18:05:18.050Z,98494.51
2018-12-12T18:10:21.327Z,98489.52
2018-12-12T18:15:24.690Z,98495.22
2018-12-12T18:20:28.028Z,98498.25
2018-12-12T18:25:31.401Z,98495.80
2018-12-12T18:30:35.009Z,98499.89
2018-12-12T18:35:38.265Z,98491.31
2018-12-12T18:40:41.565Z,98491.44
2018-12-12T18:45:44.930Z,98486.85
2018-12-12T18:50:48.326Z,98485.28
2018-12-12T18:55:52.167Z,98483.48
2018-12-12T19:00:56.274Z,98492.61
2018-12-12T19:05:59.467Z,98484.73
2018-12-12T19:11:02.757Z,98480.15
2018-12-12T19:16:06.045Z,98480.45
2018-12-12T19:21:09.349Z,98480.16
2018-12-12T19:26:12.609Z,98488.03
2018-12-12T19:31:15.879Z,98487.75
2018-12-12T19:36:19.179Z,98484.93
2018-12-12T19:41:22.464Z,98490.48
2018-12-12T19:46:25.751Z,98483.59
2018-12-12T19:51:29.074Z,98485.44
2018-12-12T19:56:32.453Z,98478.45
2018-12-12T20:01:35.705Z,98481.19
2018-12-12T20:06:39.066Z,98475.70
2018-12-12T20:11:42.564Z,98474.73
2018-12-12T20:16:45.894Z,98467.31
2018-12-12T20:21:49.198Z,98471.98
2018-12-12T20:26:52.536Z,98468.56
2018-12-12T20:31:55.888Z,98455.77
2018-12-12T20:36:59.186Z,98456.24
2018-12-12T20:42:03.518Z,98457.72
2018-12-12T20:47:06.844Z,98456.46
2018-12-12T20:52:10.157Z,98454.63
2018-12-12T20:57:13.427Z,98448.91
2018-12-12T21:02:16.710Z,98446.09
2018-12-12T21:07:20.344Z,98440.06
2018-12-12T21:12:23.800Z,98440.98
2018-12-12T21:17:27.665Z,98430.13
2018-12-12T21:22:30.898Z,98415.67
2018-12-12T21:27:34.521Z,98419.84
2018-12-12T21:32:38.508Z,98419.77
2018-12-12T21:37:42.039Z,98418.03
2018-12-12T21:42:46.717Z,98415.68
2018-12-12T21:47:50.307Z,98413.95
2018-12-12T21:52:53.529Z,98413.91
2018-12-12T21:57:56.789Z,98402.09
2018-12-12T22:03:00.265Z,98411.27
2018-12-12T22:08:03.626Z,98405.85
2018-12-12T22:13:07.262Z,98409.33
2018-12-12T22:18:10.547Z,98416.50
2018-12-12T22:23:13.770Z,98414.94
2018-12-12T22:28:16.959Z,98408.83
2018-12-12T22:33:20.250Z,98403.69
2018-12-12T22:38:23.428Z,98401.99
2018-12-12T22:43:26.667Z,98395.22
2018-12-12T22:48:29.993Z,98399.20
2018-12-12T22:53:33.206Z,98395.98
2018-12-12T22:58:36.491Z,98389.24
2018-12-12T23:03:39.993Z,98393.46
2018-12-12T23:08:43.198Z,98383.55
2018-12-12T23:13:46.424Z,98385.33
2018-12-12T23:18:50.161Z,98383.63
2018-12-12T23:23:54.160Z,98372.13
2018-12-12T23:28:57.317Z,98376.00
2018-12-12T23:34:00.509Z,98376.17
2018-12-12T23:39:05.577Z,98371.89
2018-12-12T23:44:08.782Z,98369.09
2018-12-12T23:49:11.970Z,98361.22
2018-12-12T23:54:15.168Z,98354.27
2018-12-12T23:59:18.349Z,98352.02
